createdAt,value
2019-03-20T00:00:39.293Z,14.37
2019-03-20T00:03:07.441Z,12.27
2019-03-20T00:05:35.657Z,12.47
2019-03-20T00:08:04.323Z,10.70
2019-03-20T00:10:33.131Z,9.07
2019-03-20T00:13:02.758Z,10.10
2019-03-20T00:15:30.929Z,12.00
2019-03-20T00:17:58.920Z,11.77
2019-03-20T00:20:27.760Z,14.33
2019-03-20T00:22:56.367Z,8.73
2019-03-20T00:25:24.570Z,11.63
2019-03-20T00:27:54.339Z,10.90
2019-03-20T00:30:23.009Z,10.70
2019-03-20T00:32:51.783Z,10.70
2019-03-20T00:35:20.061Z,13.17
2019-03-20T00:37:48.170Z,10.27
2019-03-20T00:40:16.283Z,17.37
2019-03-20T00:42:44.335Z,8.67
2019-03-20T00:45:12.604Z,14.83
2019-03-20T00:47:42.263Z,12.37
2019-03-20T00:50:11.827Z,14.77
2019-03-20T00:52:39.925Z,9.57
2019-03-20T00:55:08.093Z,9.40
2019-03-20T00:57:36.238Z,16.00
2019-03-20T01:00:04.717Z,13.33
2019-03-20T01:02:32.782Z,12.47
2019-03-20T01:05:08.492Z,8.70
2019-03-20T01:07:30.514Z,13.83
2019-03-20T01:09:58.778Z,13.40
2019-03-20T01:12:26.857Z,12.00
2019-03-20T01:14:55.027Z,8.63
2019-03-20T01:17:23.042Z,10.30
2019-03-20T01:19:51.152Z,10.23
2019-03-20T01:22:19.213Z,16.27
2019-03-20T01:24:47.219Z,13.83
2019-03-20T01:27:15.283Z,17.20
2019-03-20T01:29:43.365Z,18.87
2019-03-20T01:32:11.412Z,10.40
2019-03-20T01:34:39.404Z,15.03
2019-03-20T01:37:07.832Z,10.90
2019-03-20T01:39:36.053Z,9.53
2019-03-20T01:42:04.051Z,12.47
2019-03-20T01:44:32.107Z,9.77
2019-03-20T01:47:00.172Z,10.23
2019-03-20T01:49:28.226Z,10.97
2019-03-20T01:51:56.627Z,10.53
2019-03-20T01:54:24.690Z,7.90
2019-03-20T01:56:52.704Z,10.73
2019-03-20T01:59:20.859Z,10.70
2019-03-20T02:01:49.028Z,11.30
2019-03-20T02:04:17.092Z,12.80
2019-03-20T02:06:45.077Z,11.00
2019-03-20T02:09:13.269Z,11.77
2019-03-20T02:11:41.401Z,13.03
2019-03-20T02:14:09.447Z,12.13
2019-03-20T02:16:38.837Z,13.87
2019-03-20T02:19:06.835Z,11.07
2019-03-20T02:21:34.862Z,12.33
2019-03-20T02:24:02.922Z,10.07
2019-03-20T02:26:31.042Z,9.33
2019-03-20T02:28:59.067Z,17.63
2019-03-20T02:31:27.229Z,13.83
2019-03-20T02:33:55.383Z,12.00
2019-03-20T02:36:23.329Z,8.93
2019-03-20T02:38:51.371Z,8.40
2019-03-20T02:41:19.364Z,11.63
2019-03-20T02:43:47.449Z,16.67
2019-03-20T02:46:15.435Z,10.53
2019-03-20T02:48:43.496Z,11.47
2019-03-20T02:51:14.063Z,9.23
2019-03-20T02:53:42.151Z,14.70
2019-03-20T02:56:10.189Z,12.80
2019-03-20T02:58:38.223Z,11.57
2019-03-20T03:01:06.336Z,9.20
2019-03-20T03:03:34.329Z,13.13
2019-03-20T03:06:07.059Z,11.20
2019-03-20T03:08:32.005Z,9.70
2019-03-20T03:11:00.118Z,12.70
2019-03-20T03:13:28.183Z,15.13
2019-03-20T03:15:56.199Z,14.20
2019-03-20T03:18:24.288Z,9.70
2019-03-20T03:20:52.376Z,10.70
2019-03-20T03:23:20.380Z,11.90
2019-03-20T03:25:50.192Z,19.77
2019-03-20T03:28:18.139Z,8.40
2019-03-20T03:30:46.671Z,10.13
2019-03-20T03:33:14.829Z,12.00
2019-03-20T03:35:43.023Z,10.23
2019-03-20T03:38:12.070Z,10.93
2019-03-20T03:40:40.135Z,8.93
2019-03-20T03:43:08.204Z,12.23
2019-03-20T03:45:36.217Z,13.07
2019-03-20T03:48:04.639Z,13.47
2019-03-20T03:50:32.679Z,10.03
2019-03-20T03:53:00.723Z,15.80
2019-03-20T03:55:28.723Z,10.83
2019-03-20T03:57:56.804Z,9.33
2019-03-20T04:00:24.821Z,9.60
2019-03-20T04:02:52.840Z,5.77
2019-03-20T04:05:20.977Z,9.20
2019-03-20T04:07:48.989Z,13.17
2019-03-20T04:10:17.029Z,12.53
2019-03-20T04:12:45.648Z,9.87
2019-03-20T04:15:13.651Z,14.43
2019-03-20T04:17:41.699Z,14.23
2019-03-20T04:20:10.393Z,11.30
2019-03-20T04:22:38.508Z,13.63
2019-03-20T04:25:07.087Z,10.80
2019-03-20T04:27:35.057Z,13.43
2019-03-20T04:30:03.147Z,12.93
2019-03-20T04:32:31.107Z,13.17
2019-03-20T04:34:59.253Z,13.03
2019-03-20T04:37:27.339Z,11.67
2019-03-20T04:39:55.504Z,10.37
2019-03-20T04:42:23.561Z,11.27
2019-03-20T04:44:51.582Z,13.03
2019-03-20T04:47:19.659Z,12.00
2019-03-20T04:49:47.674Z,11.63
2019-03-20T04:52:15.695Z,12.47
2019-03-20T04:54:43.771Z,10.67
2019-03-20T04:57:11.909Z,9.47
2019-03-20T04:59:39.875Z,12.50
2019-03-20T05:02:07.948Z,14.33
2019-03-20T05:04:36.021Z,13.73
2019-03-20T05:07:04.111Z,11.07
2019-03-20T05:09:32.114Z,9.77
2019-03-20T05:12:00.133Z,13.30
2019-03-20T05:14:28.182Z,14.73
2019-03-20T05:16:56.317Z,13.53
2019-03-20T05:19:24.421Z,12.47
2019-03-20T05:21:52.545Z,14.30
2019-03-20T05:24:22.821Z,13.17
2019-03-20T05:26:51.756Z,14.07
2019-03-20T05:29:19.982Z,10.23
2019-03-20T05:31:48.079Z,13.97
2019-03-20T05:34:16.135Z,12.10
2019-03-20T05:36:45.012Z,13.73
2019-03-20T05:39:15.684Z,16.03
2019-03-20T05:41:42.973Z,12.33
2019-03-20T05:44:11.065Z,14.43
2019-03-20T05:46:39.366Z,14.90
2019-03-20T05:49:07.462Z,11.97
2019-03-20T05:51:35.640Z,14.53
2019-03-20T05:54:03.729Z,12.63
2019-03-20T05:56:31.831Z,12.57
2019-03-20T05:58:59.894Z,12.73
2019-03-20T06:01:28.315Z,11.87
2019-03-20T06:03:56.464Z,13.33
2019-03-20T06:06:24.539Z,8.90
2019-03-20T06:08:52.605Z,10.30
2019-03-20T06:11:20.694Z,8.33
2019-03-20T06:13:48.730Z,9.07
2019-03-20T06:16:16.801Z,10.20
2019-03-20T06:18:44.921Z,12.17
2019-03-20T06:21:13.106Z,13.88
2019-03-20T06:23:41.630Z,14.53
2019-03-20T06:26:09.867Z,23.83
2019-03-20T06:28:37.898Z,11.83
2019-03-20T06:31:06.379Z,11.90
2019-03-20T06:33:34.419Z,11.87
2019-03-20T06:36:02.418Z,16.70
2019-03-20T06:38:30.472Z,13.47
2019-03-20T06:40:59.096Z,10.63
2019-03-20T06:43:27.176Z,10.77
2019-03-20T06:45:59.666Z,11.63
2019-03-20T06:48:27.748Z,12.80
2019-03-20T06:50:55.944Z,16.47
2019-03-20T06:53:25.268Z,13.27
2019-03-20T06:55:53.319Z,13.80
2019-03-20T06:58:21.750Z,9.30
2019-03-20T07:00:59.508Z,15.28
2019-03-20T07:03:48.343Z,16.27
2019-03-20T07:06:22.924Z,14.03
2019-03-20T07:08:59.492Z,11.10
2019-03-20T07:11:26.717Z,11.70
2019-03-20T07:13:54.868Z,18.53
2019-03-20T07:16:22.806Z,19.23
2019-03-20T07:18:50.809Z,17.50
2019-03-20T07:21:18.939Z,19.07
2019-03-20T07:23:46.974Z,15.80
2019-03-20T07:26:16.004Z,10.97
2019-03-20T07:28:44.002Z,13.07
2019-03-20T07:31:15.749Z,15.63
2019-03-20T07:33:41.705Z,17.30
2019-03-20T07:36:09.769Z,10.90
2019-03-20T07:38:37.811Z,17.33
2019-03-20T07:41:05.817Z,12.63
2019-03-20T07:43:33.910Z,10.50
2019-03-20T07:46:02.269Z,9.63
2019-03-20T07:48:30.412Z,13.83
2019-03-20T07:50:58.517Z,10.80
2019-03-20T07:53:26.593Z,12.77
2019-03-20T07:55:54.633Z,8.93
2019-03-20T07:58:22.712Z,14.23
2019-03-20T08:00:52.692Z,16.27
2019-03-20T08:03:20.815Z,12.23
2019-03-20T08:05:48.883Z,9.90
2019-03-20T08:08:16.913Z,8.77
2019-03-20T08:10:44.949Z,8.73
2019-03-20T08:13:13.051Z,10.97
2019-03-20T08:15:41.117Z,9.80
2019-03-20T08:18:09.107Z,13.57
2019-03-20T08:20:37.192Z,13.30
2019-03-20T08:23:05.148Z,12.17
2019-03-20T08:25:33.262Z,11.60
2019-03-20T08:28:01.264Z,10.63
2019-03-20T08:30:29.289Z,16.20
2019-03-20T08:32:57.329Z,9.00
2019-03-20T08:35:25.359Z,8.33
2019-03-20T08:37:53.379Z,11.60
2019-03-20T08:40:21.410Z,13.60
2019-03-20T08:42:49.560Z,7.83
2019-03-20T08:45:17.624Z,9.03
2019-03-20T08:47:45.615Z,9.70
2019-03-20T08:50:14.927Z,9.33
2019-03-20T08:52:43.022Z,10.43
2019-03-20T08:55:11.164Z,9.83
2019-03-20T08:57:39.300Z,11.20
2019-03-20T09:00:08.462Z,11.57
2019-03-20T09:02:36.504Z,8.17
2019-03-20T09:05:05.020Z,8.80
2019-03-20T09:07:33.215Z,5.77
2019-03-20T09:10:01.227Z,6.20
2019-03-20T09:12:29.316Z,6.70
2019-03-20T09:14:57.269Z,7.47
2019-03-20T09:17:25.296Z,7.77
2019-03-20T09:19:53.326Z,10.07
2019-03-20T09:22:21.350Z,11.97
2019-03-20T09:24:49.435Z,8.10
2019-03-20T09:27:17.524Z,10.17
2019-03-20T09:29:45.532Z,7.07
2019-03-20T09:32:13.615Z,11.40
2019-03-20T09:34:41.635Z,5.07
2019-03-20T09:37:09.598Z,9.23
2019-03-20T09:39:37.835Z,6.30
2019-03-20T09:42:05.931Z,6.23
2019-03-20T09:44:34.030Z,9.73
2019-03-20T09:47:02.043Z,10.83
2019-03-20T09:49:30.134Z,8.93
2019-03-20T09:51:58.187Z,4.50
2019-03-20T09:54:26.199Z,9.67
2019-03-20T09:56:54.258Z,8.13
2019-03-20T09:59:22.368Z,9.90
2019-03-20T10:01:50.380Z,11.03
2019-03-20T10:04:18.348Z,8.17
2019-03-20T10:06:46.526Z,11.67
2019-03-20T10:09:20.296Z,10.90
2019-03-20T10:11:48.323Z,11.70
2019-03-20T10:14:16.367Z,11.60
2019-03-20T10:16:44.377Z,9.27
2019-03-20T10:19:12.427Z,15.40
2019-03-20T10:21:42.517Z,9.27
2019-03-20T10:24:10.460Z,11.03
2019-03-20T10:26:38.562Z,13.03
2019-03-20T10:29:06.740Z,10.10
2019-03-20T10:31:34.769Z,12.70
2019-03-20T10:34:03.007Z,9.53
2019-03-20T10:36:31.103Z,13.40
2019-03-20T10:39:06.563Z,15.33
2019-03-20T10:41:29.002Z,12.60
2019-03-20T10:43:58.206Z,11.90
2019-03-20T10:46:26.469Z,11.50
2019-03-20T10:48:56.331Z,11.73
2019-03-20T10:51:24.225Z,10.27
2019-03-20T10:53:52.356Z,9.57
2019-03-20T10:56:20.401Z,14.73
2019-03-20T10:58:48.546Z,10.83
2019-03-20T11:01:16.550Z,11.63
2019-03-20T11:03:44.685Z,12.17
2019-03-20T11:06:12.713Z,11.83
2019-03-20T11:08:40.803Z,9.47
2019-03-20T11:11:09.076Z,9.77
2019-03-20T11:13:37.487Z,11.47
2019-03-20T11:16:05.479Z,14.07
2019-03-20T11:18:33.519Z,10.90
2019-03-20T11:21:01.671Z,12.50
2019-03-20T11:23:29.732Z,11.53
2019-03-20T11:25:59.914Z,10.63
2019-03-20T11:28:27.433Z,8.77
2019-03-20T11:30:56.118Z,10.03
2019-03-20T11:33:24.234Z,14.53
2019-03-20T11:35:52.264Z,16.17
2019-03-20T11:38:20.308Z,11.97
2019-03-20T11:40:48.274Z,14.17
2019-03-20T11:43:16.323Z,11.47
2019-03-20T11:45:44.397Z,12.17
2019-03-20T11:48:12.499Z,12.17
2019-03-20T11:50:40.506Z,13.50
2019-03-20T11:53:08.530Z,12.60
2019-03-20T11:55:36.793Z,12.20
2019-03-20T11:58:04.918Z,11.70
2019-03-20T12:00:32.938Z,14.00
2019-03-20T12:03:00.935Z,15.20
2019-03-20T12:05:28.990Z,10.93
2019-03-20T12:07:57.049Z,13.80
2019-03-20T12:10:25.142Z,14.70
2019-03-20T12:12:53.204Z,16.27
2019-03-20T12:15:21.257Z,15.80
2019-03-20T12:17:49.306Z,12.47
2019-03-20T12:20:17.932Z,18.30
2019-03-20T12:22:46.042Z,11.97
2019-03-20T12:25:18.148Z,14.73
2019-03-20T12:27:46.207Z,15.97
2019-03-20T12:30:15.395Z,15.13
2019-03-20T12:32:43.599Z,14.73
2019-03-20T12:35:11.973Z,13.80
2019-03-20T12:37:40.014Z,15.93
2019-03-20T12:40:10.643Z,17.73
2019-03-20T12:42:38.605Z,16.83
2019-03-20T12:45:09.126Z,11.53
2019-03-20T12:47:37.205Z,17.97
2019-03-20T12:50:05.302Z,14.70
2019-03-20T12:52:33.348Z,15.50
2019-03-20T12:55:01.417Z,17.80
2019-03-20T12:57:29.525Z,16.30
2019-03-20T12:59:57.641Z,13.33
2019-03-20T13:02:25.771Z,16.33
2019-03-20T13:04:53.933Z,16.63
2019-03-20T13:07:22.011Z,17.23
2019-03-20T13:09:50.016Z,15.37
2019-03-20T13:12:18.091Z,16.37
2019-03-20T13:14:46.369Z,13.30
2019-03-20T13:17:15.267Z,17.03
2019-03-20T13:19:43.331Z,15.23
2019-03-20T13:22:11.416Z,18.57
2019-03-20T13:24:39.499Z,17.17
2019-03-20T13:27:07.485Z,15.57
2019-03-20T13:29:35.537Z,18.00
2019-03-20T13:32:03.794Z,13.53
2019-03-20T13:34:31.846Z,14.80
2019-03-20T13:36:59.909Z,15.23
2019-03-20T13:39:27.954Z,19.27
2019-03-20T13:41:55.997Z,14.80
2019-03-20T13:44:24.029Z,17.93
2019-03-20T13:46:52.133Z,16.43
2019-03-20T13:49:20.174Z,16.07
2019-03-20T13:51:48.190Z,15.87
2019-03-20T13:54:16.219Z,15.93
2019-03-20T13:56:44.212Z,20.40
2019-03-20T13:59:12.219Z,17.33
2019-03-20T14:01:42.588Z,16.93
2019-03-20T14:04:10.979Z,19.50
2019-03-20T14:06:40.248Z,14.93
2019-03-20T14:09:08.490Z,14.40
2019-03-20T14:11:36.486Z,20.83
2019-03-20T14:14:04.615Z,15.67
2019-03-20T14:16:32.592Z,14.90
2019-03-20T14:19:00.595Z,14.43
2019-03-20T14:21:28.690Z,13.43
2019-03-20T14:23:56.672Z,13.77
2019-03-20T14:26:24.689Z,14.23
2019-03-20T14:28:52.843Z,15.90
2019-03-20T14:31:20.918Z,12.03
2019-03-20T14:33:49.127Z,15.60
2019-03-20T14:36:17.265Z,15.50
2019-03-20T14:38:45.566Z,13.93
2019-03-20T14:41:21.187Z,14.00
2019-03-20T14:43:43.339Z,14.30
2019-03-20T14:46:11.556Z,19.40
2019-03-20T14:48:40.262Z,14.90
2019-03-20T14:51:08.385Z,15.60
2019-03-20T14:53:36.436Z,12.63
2019-03-20T14:56:08.830Z,11.60
2019-03-20T14:58:36.848Z,16.27
2019-03-20T15:01:04.932Z,13.77
2019-03-20T15:03:32.957Z,12.60
2019-03-20T15:06:00.959Z,13.20
2019-03-20T15:08:28.955Z,9.63
2019-03-20T15:10:57.037Z,13.33
2019-03-20T15:13:25.028Z,11.97
2019-03-20T15:15:57.516Z,11.60
2019-03-20T15:18:25.567Z,10.77
2019-03-20T15:20:53.643Z,9.77
2019-03-20T15:23:21.611Z,11.10
2019-03-20T15:25:49.806Z,10.57
2019-03-20T15:28:17.871Z,14.73
2019-03-20T15:30:45.808Z,11.60
2019-03-20T15:33:13.883Z,9.27
2019-03-20T15:35:41.893Z,13.83
2019-03-20T15:38:09.918Z,11.50
2019-03-20T15:40:37.889Z,9.90
2019-03-20T15:43:05.956Z,10.90
2019-03-20T15:45:33.984Z,9.20
2019-03-20T15:48:02.027Z,11.40
2019-03-20T15:50:30.920Z,8.53
2019-03-20T15:52:59.161Z,12.53
2019-03-20T15:55:27.921Z,9.77
2019-03-20T15:57:55.956Z,10.73
2019-03-20T16:00:24.198Z,13.90
2019-03-20T16:02:52.756Z,10.77
2019-03-20T16:05:20.829Z,14.60
2019-03-20T16:07:48.910Z,14.53
2019-03-20T16:10:17.833Z,11.40
2019-03-20T16:12:46.211Z,14.33
2019-03-20T16:15:15.236Z,15.80
2019-03-20T16:17:43.519Z,12.67
2019-03-20T16:20:11.747Z,13.27
2019-03-20T16:22:39.735Z,18.13
2019-03-20T16:25:08.506Z,11.63
2019-03-20T16:27:36.793Z,9.70
2019-03-20T16:30:06.356Z,10.67
2019-03-20T16:32:35.651Z,13.63
2019-03-20T16:35:03.776Z,10.17
2019-03-20T16:37:32.924Z,9.03
2019-03-20T16:40:01.120Z,14.23
2019-03-20T16:42:30.922Z,17.20
2019-03-20T16:44:58.999Z,12.27
2019-03-20T16:47:27.420Z,13.77
2019-03-20T16:50:01.646Z,13.23
2019-03-20T16:52:30.542Z,11.97
2019-03-20T16:54:58.540Z,11.33
2019-03-20T16:57:27.211Z,8.40
2019-03-20T16:59:55.515Z,12.60
2019-03-20T17:02:25.743Z,11.37
2019-03-20T17:04:53.548Z,10.97
2019-03-20T17:07:22.262Z,12.10
2019-03-20T17:09:50.638Z,12.83
2019-03-20T17:12:18.884Z,14.33
2019-03-20T17:14:47.263Z,12.23
2019-03-20T17:17:15.339Z,17.77
2019-03-20T17:19:43.475Z,15.97
2019-03-20T17:22:18.692Z,16.30
2019-03-20T17:24:46.966Z,15.37
2019-03-20T17:27:16.292Z,15.03
2019-03-20T17:29:44.346Z,16.87
2019-03-20T17:32:12.399Z,14.07
2019-03-20T17:34:40.463Z,10.87
2019-03-20T17:37:08.531Z,11.37
2019-03-20T17:39:36.607Z,12.90
2019-03-20T17:42:04.624Z,16.30
2019-03-20T17:44:32.693Z,16.17
2019-03-20T17:47:00.853Z,15.60
2019-03-20T17:49:28.935Z,14.60
2019-03-20T17:51:56.976Z,12.27
2019-03-20T17:54:25.054Z,13.40
2019-03-20T17:56:53.211Z,10.70
2019-03-20T17:59:21.210Z,13.93
2019-03-20T18:01:49.249Z,14.50
2019-03-20T18:04:17.327Z,14.70
2019-03-20T18:06:45.377Z,18.77
2019-03-20T18:09:13.485Z,14.63
2019-03-20T18:11:47.421Z,18.80
2019-03-20T18:14:11.251Z,14.23
2019-03-20T18:16:39.382Z,12.60
2019-03-20T18:19:08.572Z,14.20
2019-03-20T18:21:36.756Z,11.47
2019-03-20T18:24:04.746Z,9.97
2019-03-20T18:26:32.793Z,11.77
2019-03-20T18:29:00.915Z,13.60
2019-03-20T18:31:29.012Z,11.87
2019-03-20T18:33:57.066Z,10.03
2019-03-20T18:36:26.236Z,9.47
2019-03-20T18:38:54.363Z,10.23
2019-03-20T18:41:22.494Z,9.97
2019-03-20T18:43:50.547Z,11.37
2019-03-20T18:46:18.766Z,6.17
2019-03-20T18:48:46.798Z,8.20
2019-03-20T18:51:14.776Z,8.13
2019-03-20T18:53:43.753Z,6.33
2019-03-20T18:56:11.675Z,8.87
2019-03-20T18:58:39.777Z,9.13
2019-03-20T19:01:10.031Z,10.08
2019-03-20T19:03:38.982Z,6.33
2019-03-20T19:06:08.602Z,8.47
2019-03-20T19:08:37.209Z,11.33
2019-03-20T19:11:05.305Z,9.17
2019-03-20T19:13:34.497Z,11.13
2019-03-20T19:16:02.659Z,9.50
2019-03-20T19:18:30.752Z,9.33
2019-03-20T19:20:58.930Z,9.67
2019-03-20T19:23:27.117Z,7.60
2019-03-20T19:25:55.304Z,9.27
2019-03-20T19:28:23.388Z,6.77
2019-03-20T19:30:51.502Z,10.40
2019-03-20T19:33:19.680Z,7.67
2019-03-20T19:35:48.098Z,8.47
2019-03-20T19:38:17.299Z,10.17
2019-03-20T19:40:45.526Z,9.37
2019-03-20T19:43:13.547Z,9.70
2019-03-20T19:45:41.609Z,12.50
2019-03-20T19:48:13.756Z,17.40
2019-03-20T19:50:41.388Z,10.07
2019-03-20T19:53:09.468Z,7.57
2019-03-20T19:55:42.695Z,14.00
2019-03-20T19:58:10.739Z,7.60
2019-03-20T20:00:38.819Z,9.03
2019-03-20T20:03:06.858Z,8.43
2019-03-20T20:05:40.162Z,8.75
2019-03-20T20:08:09.835Z,8.50
2019-03-20T20:10:38.244Z,8.80
2019-03-20T20:13:06.455Z,10.17
2019-03-20T20:15:35.974Z,12.13
2019-03-20T20:18:04.039Z,7.63
2019-03-20T20:20:32.032Z,10.20
2019-03-20T20:23:04.359Z,10.93
2019-03-20T20:25:33.206Z,6.70
2019-03-20T20:28:02.495Z,6.43
2019-03-20T20:30:31.509Z,9.97
2019-03-20T20:33:02.358Z,10.20
2019-03-20T20:35:32.763Z,10.10
2019-03-20T20:38:00.882Z,6.80
2019-03-20T20:40:29.107Z,5.90
2019-03-20T20:42:57.267Z,12.17
2019-03-20T20:45:25.334Z,15.37
2019-03-20T20:47:53.513Z,9.57
2019-03-20T20:50:21.683Z,8.00
2019-03-20T20:52:49.764Z,7.47
2019-03-20T20:55:17.910Z,9.63
2019-03-20T20:57:45.975Z,7.90
2019-03-20T21:00:15.528Z,8.37
2019-03-20T21:02:43.594Z,6.73
2019-03-20T21:05:11.654Z,7.70
2019-03-20T21:07:39.718Z,10.63
2019-03-20T21:10:08.075Z,13.23
2019-03-20T21:12:36.084Z,12.77
2019-03-20T21:15:04.534Z,8.60
2019-03-20T21:17:52.402Z,8.07
2019-03-20T21:20:20.657Z,10.95
2019-03-20T21:23:06.415Z,10.48
2019-03-20T21:25:34.727Z,9.33
2019-03-20T21:28:28.511Z,9.63
2019-03-20T21:30:59.524Z,9.67
2019-03-20T21:33:49.485Z,10.17
2019-03-20T21:36:55.002Z,9.30
2019-03-20T21:39:24.245Z,11.73
2019-03-20T21:42:17.219Z,11.63
2019-03-20T21:45:10.092Z,12.33
2019-03-20T21:47:37.991Z,15.60
2019-03-20T21:50:34.302Z,12.53
2019-03-20T21:53:02.710Z,14.77
2019-03-20T21:55:49.862Z,18.00
2019-03-20T21:58:23.647Z,16.97
2019-03-20T22:01:09.278Z,15.63
2019-03-20T22:03:38.543Z,12.53
2019-03-20T22:06:25.673Z,17.03
2019-03-20T22:08:54.036Z,14.93
2019-03-20T22:11:39.871Z,17.37
2019-03-20T22:14:09.415Z,15.87
2019-03-20T22:16:56.663Z,14.38
2019-03-20T22:19:28.179Z,16.35
2019-03-20T22:22:03.218Z,17.90
2019-03-20T22:24:47.160Z,14.23
2019-03-20T22:27:37.190Z,15.20
2019-03-20T22:30:06.221Z,19.57
2019-03-20T22:32:54.025Z,16.63
2019-03-20T22:35:34.288Z,16.27
2019-03-20T22:38:03.113Z,18.13
2019-03-20T22:40:56.524Z,17.07
2019-03-20T22:43:30.728Z,16.90
2019-03-20T22:46:09.343Z,15.40
2019-03-20T22:48:56.577Z,16.83
2019-03-20T22:51:42.125Z,19.30
2019-03-20T22:54:28.122Z,18.03
2019-03-20T22:57:11.837Z,19.67
2019-03-20T22:59:40.102Z,25.47
2019-03-20T23:02:36.180Z,16.60
2019-03-20T23:05:05.483Z,20.97
2019-03-20T23:07:33.766Z,22.70
2019-03-20T23:10:01.999Z,23.00
2019-03-20T23:12:30.271Z,20.10
2019-03-20T23:14:58.591Z,21.60
2019-03-20T23:17:26.856Z,22.57
2019-03-20T23:19:55.904Z,23.03
2019-03-20T23:22:24.234Z,26.87
2019-03-20T23:24:52.584Z,24.13
2019-03-20T23:27:38.765Z,27.43
2019-03-20T23:30:29.591Z,27.07
2019-03-20T23:32:57.874Z,24.57
2019-03-20T23:35:26.103Z,28.20
2019-03-20T23:37:54.456Z,28.90
2019-03-20T23:40:22.776Z,29.13
2019-03-20T23:42:51.081Z,29.47
2019-03-20T23:45:19.344Z,28.70
2019-03-20T23:47:49.506Z,24.67
2019-03-20T23:50:17.852Z,26.40
2019-03-20T23:52:46.107Z,24.67
2019-03-20T23:55:14.432Z,29.97
2019-03-20T23:57:42.844Z,24.77
